sensor_id;sensor_type;location;lat;lon;timestamp;P1;durP1;ratioP1;P2;durP2;ratioP2
20729;SDS011;10526;50.850;12.928;2022-10-30T00:02:53;25.45;;;12.65;;
20729;SDS011;10526;50.850;12.928;2022-10-30T00:07:16;29.92;;;13.00;;
20729;SDS011;10526;50.850;12.928;2022-10-30T00:11:38;28.05;;;12.13;;
20729;SDS011;10526;50.850;12.928;2022-10-30T00:16:02;30.42;;;12.80;;
20729;SDS011;10526;50.850;12.928;2022-10-30T00:20:27;27.50;;;11.48;;
20729;SDS011;10526;50.850;12.928;2022-10-30T00:24:49;28.33;;;12.20;;
20729;SDS011;10526;50.850;12.928;2022-10-30T00:29:11;26.50;;;12.27;;
20729;SDS011;10526;50.850;12.928;2022-10-30T00:33:33;29.15;;;11.68;;
20729;SDS011;10526;50.850;12.928;2022-10-30T00:37:58;21.45;;;10.05;;
20729;SDS011;10526;50.850;12.928;2022-10-30T00:42:21;23.45;;;11.35;;
20729;SDS011;10526;50.850;12.928;2022-10-30T00:46:49;28.70;;;9.70;;
20729;SDS011;10526;50.850;12.928;2022-10-30T00:51:11;33.65;;;12.27;;
20729;SDS011;10526;50.850;12.928;2022-10-30T00:55:35;32.22;;;11.65;;
20729;SDS011;10526;50.850;12.928;2022-10-30T01:00:03;26.50;;;11.52;;
20729;SDS011;10526;50.850;12.928;2022-10-30T01:04:29;26.67;;;11.50;;
20729;SDS011;10526;50.850;12.928;2022-10-30T01:08:54;26.95;;;11.40;;
20729;SDS011;10526;50.850;12.928;2022-10-30T01:13:20;21.92;;;10.57;;
20729;SDS011;10526;50.850;12.928;2022-10-30T01:23:08;25.25;;;11.48;;
20729;SDS011;10526;50.850;12.928;2022-10-30T01:37:42;25.88;;;10.13;;
20729;SDS011;10526;50.850;12.928;2022-10-30T02:02:29;21.20;;;7.63;;
20729;SDS011;10526;50.850;12.928;2022-10-30T02:06:53;20.13;;;6.85;;
20729;SDS011;10526;50.850;12.928;2022-10-30T02:11:15;19.48;;;7.00;;
20729;SDS011;10526;50.850;12.928;2022-10-30T02:15:38;16.27;;;5.85;;
20729;SDS011;10526;50.850;12.928;2022-10-30T02:20:02;22.15;;;7.93;;
20729;SDS011;10526;50.850;12.928;2022-10-30T02:24:26;21.52;;;7.65;;
20729;SDS011;10526;50.850;12.928;2022-10-30T02:28:49;23.58;;;8.07;;
20729;SDS011;10526;50.850;12.928;2022-10-30T02:33:11;29.92;;;9.63;;
20729;SDS011;10526;50.850;12.928;2022-10-30T02:37:34;26.33;;;9.50;;
20729;SDS011;10526;50.850;12.928;2022-10-30T02:41:56;23.75;;;9.50;;
20729;SDS011;10526;50.850;12.928;2022-10-30T02:46:18;32.95;;;9.00;;
20729;SDS011;10526;50.850;12.928;2022-10-30T02:50:42;19.88;;;8.07;;
20729;SDS011;10526;50.850;12.928;2022-10-30T02:55:04;30.48;;;8.23;;
20729;SDS011;10526;50.850;12.928;2022-10-30T02:59:26;16.88;;;7.07;;
20729;SDS011;10526;50.850;12.928;2022-10-30T03:03:51;17.58;;;6.63;;
20729;SDS011;10526;50.850;12.928;2022-10-30T03:08:12;19.65;;;7.80;;
20729;SDS011;10526;50.850;12.928;2022-10-30T03:12:34;20.65;;;7.82;;
20729;SDS011;10526;50.850;12.928;2022-10-30T03:16:56;20.10;;;7.60;;
20729;SDS011;10526;50.850;12.928;2022-10-30T03:21:19;22.20;;;7.70;;
20729;SDS011;10526;50.850;12.928;2022-10-30T03:25:43;20.83;;;7.28;;
20729;SDS011;10526;50.850;12.928;2022-10-30T03:30:05;18.95;;;6.80;;
20729;SDS011;10526;50.850;12.928;2022-10-30T03:34:27;20.40;;;8.50;;
20729;SDS011;10526;50.850;12.928;2022-10-30T03:38:56;23.85;;;6.53;;
20729;SDS011;10526;50.850;12.928;2022-10-30T03:43:19;20.88;;;6.63;;
20729;SDS011;10526;50.850;12.928;2022-10-30T03:47:42;23.88;;;7.38;;
20729;SDS011;10526;50.850;12.928;2022-10-30T03:52:04;22.00;;;7.25;;
20729;SDS011;10526;50.850;12.928;2022-10-30T03:56:26;16.90;;;6.43;;
20729;SDS011;10526;50.850;12.928;2022-10-30T04:00:52;17.27;;;6.70;;
20729;SDS011;10526;50.850;12.928;2022-10-30T04:05:15;22.67;;;5.68;;
20729;SDS011;10526;50.850;12.928;2022-10-30T04:09:40;19.13;;;5.63;;
20729;SDS011;10526;50.850;12.928;2022-10-30T04:14:02;14.43;;;5.55;;
20729;SDS011;10526;50.850;12.928;2022-10-30T04:18:25;20.75;;;5.25;;
20729;SDS011;10526;50.850;12.928;2022-10-30T04:22:48;15.45;;;4.88;;
20729;SDS011;10526;50.850;12.928;2022-10-30T04:27:16;16.10;;;5.50;;
20729;SDS011;10526;50.850;12.928;2022-10-30T04:31:38;18.92;;;5.55;;
20729;SDS011;10526;50.850;12.928;2022-10-30T04:36:00;20.42;;;5.07;;
20729;SDS011;10526;50.850;12.928;2022-10-30T04:40:25;14.10;;;5.22;;
20729;SDS011;10526;50.850;12.928;2022-10-30T04:44:57;17.90;;;5.90;;
20729;SDS011;10526;50.850;12.928;2022-10-30T04:49:19;26.42;;;5.88;;
20729;SDS011;10526;50.850;12.928;2022-10-30T04:53:41;20.40;;;6.32;;
20729;SDS011;10526;50.850;12.928;2022-10-30T04:58:07;17.05;;;5.78;;
20729;SDS011;10526;50.850;12.928;2022-10-30T05:02:35;21.45;;;6.20;;
20729;SDS011;10526;50.850;12.928;2022-10-30T05:06:57;20.77;;;6.13;;
20729;SDS011;10526;50.850;12.928;2022-10-30T05:11:19;14.18;;;5.57;;
20729;SDS011;10526;50.850;12.928;2022-10-30T05:15:42;21.63;;;6.28;;
20729;SDS011;10526;50.850;12.928;2022-10-30T05:20:04;16.80;;;5.00;;
20729;SDS011;10526;50.850;12.928;2022-10-30T05:24:27;16.55;;;5.00;;
20729;SDS011;10526;50.850;12.928;2022-10-30T05:28:49;14.45;;;5.22;;
20729;SDS011;10526;50.850;12.928;2022-10-30T05:33:11;15.75;;;5.50;;
20729;SDS011;10526;50.850;12.928;2022-10-30T05:37:36;16.33;;;5.45;;
20729;SDS011;10526;50.850;12.928;2022-10-30T05:41:58;15.77;;;5.80;;
20729;SDS011;10526;50.850;12.928;2022-10-30T05:46:31;19.17;;;5.75;;
20729;SDS011;10526;50.850;12.928;2022-10-30T05:51:08;18.40;;;4.50;;
20729;SDS011;10526;50.850;12.928;2022-10-30T05:55:34;15.68;;;5.43;;
20729;SDS011;10526;50.850;12.928;2022-10-30T06:00:06;12.70;;;4.35;;
20729;SDS011;10526;50.850;12.928;2022-10-30T06:04:35;17.63;;;5.00;;
20729;SDS011;10526;50.850;12.928;2022-10-30T06:09:02;18.88;;;4.95;;
20729;SDS011;10526;50.850;12.928;2022-10-30T06:13:31;15.07;;;4.97;;
20729;SDS011;10526;50.850;12.928;2022-10-30T06:17:58;11.77;;;4.88;;
20729;SDS011;10526;50.850;12.928;2022-10-30T06:22:56;12.00;;;4.25;;
20729;SDS011;10526;50.850;12.928;2022-10-30T06:27:27;16.42;;;6.47;;
20729;SDS011;10526;50.850;12.928;2022-10-30T06:31:49;18.88;;;5.57;;
20729;SDS011;10526;50.850;12.928;2022-10-30T06:36:11;23.42;;;9.43;;
20729;SDS011;10526;50.850;12.928;2022-10-30T06:40:34;19.75;;;7.05;;
20729;SDS011;10526;50.850;12.928;2022-10-30T06:45:11;28.55;;;8.95;;
20729;SDS011;10526;50.850;12.928;2022-10-30T06:49:34;18.10;;;5.78;;
20729;SDS011;10526;50.850;12.928;2022-10-30T06:53:56;15.75;;;6.00;;
20729;SDS011;10526;50.850;12.928;2022-10-30T06:58:33;17.60;;;6.22;;
20729;SDS011;10526;50.850;12.928;2022-10-30T07:03:05;23.17;;;6.63;;
20729;SDS011;10526;50.850;12.928;2022-10-30T07:07:29;23.02;;;9.82;;
20729;SDS011;10526;50.850;12.928;2022-10-30T07:11:51;19.90;;;7.35;;
20729;SDS011;10526;50.850;12.928;2022-10-30T07:16:16;21.20;;;6.55;;
20729;SDS011;10526;50.850;12.928;2022-10-30T07:20:42;25.58;;;8.38;;
20729;SDS011;10526;50.850;12.928;2022-10-30T07:25:04;20.27;;;6.53;;
20729;SDS011;10526;50.850;12.928;2022-10-30T07:29:46;19.23;;;7.38;;
20729;SDS011;10526;50.850;12.928;2022-10-30T07:34:14;15.55;;;6.35;;
20729;SDS011;10526;50.850;12.928;2022-10-30T07:38:56;24.02;;;7.38;;
20729;SDS011;10526;50.850;12.928;2022-10-30T07:43:23;21.75;;;7.38;;
20729;SDS011;10526;50.850;12.928;2022-10-30T07:47:54;19.50;;;6.75;;
20729;SDS011;10526;50.850;12.928;2022-10-30T07:52:40;16.80;;;6.55;;
20729;SDS011;10526;50.850;12.928;2022-10-30T07:57:02;22.13;;;6.72;;
20729;SDS011;10526;50.850;12.928;2022-10-30T08:01:46;17.30;;;5.90;;
20729;SDS011;10526;50.850;12.928;2022-10-30T08:06:21;15.02;;;6.18;;
20729;SDS011;10526;50.850;12.928;2022-10-30T08:10:47;20.75;;;5.63;;
20729;SDS011;10526;50.850;12.928;2022-10-30T08:15:10;16.40;;;5.53;;
20729;SDS011;10526;50.850;12.928;2022-10-30T08:19:32;17.60;;;5.97;;
20729;SDS011;10526;50.850;12.928;2022-10-30T08:23:54;16.63;;;5.97;;
20729;SDS011;10526;50.850;12.928;2022-10-30T08:28:19;15.60;;;4.75;;
20729;SDS011;10526;50.850;12.928;2022-10-30T08:32:41;17.73;;;6.20;;
20729;SDS011;10526;50.850;12.928;2022-10-30T08:37:22;15.93;;;5.03;;
20729;SDS011;10526;50.850;12.928;2022-10-30T08:41:44;13.68;;;4.53;;
20729;SDS011;10526;50.850;12.928;2022-10-30T08:46:06;20.63;;;4.70;;
20729;SDS011;10526;50.850;12.928;2022-10-30T08:50:29;17.50;;;4.97;;
20729;SDS011;10526;50.850;12.928;2022-10-30T08:54:52;17.25;;;4.38;;
20729;SDS011;10526;50.850;12.928;2022-10-30T08:59:16;18.98;;;4.85;;
20729;SDS011;10526;50.850;12.928;2022-10-30T09:03:44;15.00;;;4.50;;
20729;SDS011;10526;50.850;12.928;2022-10-30T09:08:26;18.65;;;5.43;;
20729;SDS011;10526;50.850;12.928;2022-10-30T09:12:58;18.98;;;5.03;;
20729;SDS011;10526;50.850;12.928;2022-10-30T09:17:23;16.20;;;4.50;;
20729;SDS011;10526;50.850;12.928;2022-10-30T09:21:45;15.02;;;4.13;;
20729;SDS011;10526;50.850;12.928;2022-10-30T09:26:07;13.77;;;4.28;;
20729;SDS011;10526;50.850;12.928;2022-10-30T09:30:43;14.38;;;4.68;;
20729;SDS011;10526;50.850;12.928;2022-10-30T09:35:09;14.40;;;4.45;;
20729;SDS011;10526;50.850;12.928;2022-10-30T09:39:33;15.85;;;4.63;;
20729;SDS011;10526;50.850;12.928;2022-10-30T09:49:02;17.40;;;5.00;;
20729;SDS011;10526;50.850;12.928;2022-10-30T10:08:18;17.80;;;3.95;;
20729;SDS011;10526;50.850;12.928;2022-10-30T10:13:08;15.57;;;3.90;;
20729;SDS011;10526;50.850;12.928;2022-10-30T10:17:58;18.90;;;4.78;;
20729;SDS011;10526;50.850;12.928;2022-10-30T10:22:26;12.32;;;3.03;;
20729;SDS011;10526;50.850;12.928;2022-10-30T10:27:02;20.35;;;4.43;;
20729;SDS011;10526;50.850;12.928;2022-10-30T10:46:52;17.27;;;3.53;;
20729;SDS011;10526;50.850;12.928;2022-10-30T10:51:47;14.25;;;3.63;;
20729;SDS011;10526;50.850;12.928;2022-10-30T10:56:17;15.30;;;3.70;;
20729;SDS011;10526;50.850;12.928;2022-10-30T11:00:42;15.43;;;3.80;;
20729;SDS011;10526;50.850;12.928;2022-10-30T11:05:17;16.92;;;3.88;;
20729;SDS011;10526;50.850;12.928;2022-10-30T11:10:09;17.85;;;4.03;;
20729;SDS011;10526;50.850;12.928;2022-10-30T11:14:34;13.35;;;3.33;;
20729;SDS011;10526;50.850;12.928;2022-10-30T11:18:59;17.13;;;3.63;;
20729;SDS011;10526;50.850;12.928;2022-10-30T11:27:53;15.27;;;3.90;;
20729;SDS011;10526;50.850;12.928;2022-10-30T11:32:18;12.50;;;3.15;;
20729;SDS011;10526;50.850;12.928;2022-10-30T11:36:43;13.80;;;3.70;;
20729;SDS011;10526;50.850;12.928;2022-10-30T11:41:06;19.80;;;3.72;;
20729;SDS011;10526;50.850;12.928;2022-10-30T11:45:33;11.55;;;3.03;;
20729;SDS011;10526;50.850;12.928;2022-10-30T11:50:00;15.43;;;4.18;;
20729;SDS011;10526;50.850;12.928;2022-10-30T11:54:47;14.20;;;3.83;;
20729;SDS011;10526;50.850;12.928;2022-10-30T11:59:17;16.90;;;3.63;;
20729;SDS011;10526;50.850;12.928;2022-10-30T12:03:42;15.50;;;3.72;;
20729;SDS011;10526;50.850;12.928;2022-10-30T12:12:37;19.15;;;3.40;;
20729;SDS011;10526;50.850;12.928;2022-10-30T12:17:01;13.68;;;3.33;;
20729;SDS011;10526;50.850;12.928;2022-10-30T12:21:25;23.50;;;4.30;;
20729;SDS011;10526;50.850;12.928;2022-10-30T12:25:51;17.98;;;4.22;;
20729;SDS011;10526;50.850;12.928;2022-10-30T12:30:32;15.38;;;3.47;;
20729;SDS011;10526;50.850;12.928;2022-10-30T12:34:59;20.10;;;3.95;;
20729;SDS011;10526;50.850;12.928;2022-10-30T12:39:31;16.85;;;3.08;;
20729;SDS011;10526;50.850;12.928;2022-10-30T12:44:41;20.33;;;3.88;;
20729;SDS011;10526;50.850;12.928;2022-10-30T12:49:59;20.40;;;3.72;;
20729;SDS011;10526;50.850;12.928;2022-10-30T12:54:11;21.38;;;3.25;;
20729;SDS011;10526;50.850;12.928;2022-10-30T13:04:08;15.90;;;3.70;;
20729;SDS011;10526;50.850;12.928;2022-10-30T13:13:40;16.83;;;3.33;;
20729;SDS011;10526;50.850;12.928;2022-10-30T13:18:15;20.52;;;3.50;;
20729;SDS011;10526;50.850;12.928;2022-10-30T13:22:43;19.23;;;3.50;;
20729;SDS011;10526;50.850;12.928;2022-10-30T13:27:17;15.10;;;3.40;;
20729;SDS011;10526;50.850;12.928;2022-10-30T13:31:57;14.68;;;3.88;;
20729;SDS011;10526;50.850;12.928;2022-10-30T13:37:00;22.55;;;3.58;;
20729;SDS011;10526;50.850;12.928;2022-10-30T13:41:38;13.15;;;3.42;;
20729;SDS011;10526;50.850;12.928;2022-10-30T13:56:01;19.23;;;3.47;;
20729;SDS011;10526;50.850;12.928;2022-10-30T14:00:37;18.02;;;3.53;;
20729;SDS011;10526;50.850;12.928;2022-10-30T14:05:28;14.88;;;4.03;;
20729;SDS011;10526;50.850;12.928;2022-10-30T14:09:59;28.95;;;11.27;;
20729;SDS011;10526;50.850;12.928;2022-10-30T14:14:28;17.27;;;3.58;;
20729;SDS011;10526;50.850;12.928;2022-10-30T14:18:58;18.75;;;3.90;;
20729;SDS011;10526;50.850;12.928;2022-10-30T14:23:22;17.95;;;3.15;;
20729;SDS011;10526;50.850;12.928;2022-10-30T14:27:58;17.02;;;3.50;;
20729;SDS011;10526;50.850;12.928;2022-10-30T14:41:16;20.23;;;3.55;;
20729;SDS011;10526;50.850;12.928;2022-10-30T14:46:02;17.33;;;3.88;;
20729;SDS011;10526;50.850;12.928;2022-10-30T15:05:02;14.18;;;3.65;;
20729;SDS011;10526;50.850;12.928;2022-10-30T15:14:30;14.32;;;3.65;;
20729;SDS011;10526;50.850;12.928;2022-10-30T15:19:14;17.17;;;4.18;;
20729;SDS011;10526;50.850;12.928;2022-10-30T15:23:36;20.38;;;4.32;;
20729;SDS011;10526;50.850;12.928;2022-10-30T15:28:01;18.17;;;4.35;;
20729;SDS011;10526;50.850;12.928;2022-10-30T15:32:24;16.88;;;3.95;;
20729;SDS011;10526;50.850;12.928;2022-10-30T15:36:46;13.32;;;3.50;;
20729;SDS011;10526;50.850;12.928;2022-10-30T15:41:08;25.63;;;5.25;;
20729;SDS011;10526;50.850;12.928;2022-10-30T15:45:32;15.02;;;4.40;;
20729;SDS011;10526;50.850;12.928;2022-10-30T15:50:02;46.45;;;12.50;;
20729;SDS011;10526;50.850;12.928;2022-10-30T15:54:25;29.85;;;9.38;;
20729;SDS011;10526;50.850;12.928;2022-10-30T15:58:49;25.75;;;5.70;;
20729;SDS011;10526;50.850;12.928;2022-10-30T16:03:17;18.95;;;6.15;;
20729;SDS011;10526;50.850;12.928;2022-10-30T16:07:43;20.50;;;4.93;;
20729;SDS011;10526;50.850;12.928;2022-10-30T16:12:07;22.75;;;6.15;;
20729;SDS011;10526;50.850;12.928;2022-10-30T16:16:32;22.20;;;7.32;;
20729;SDS011;10526;50.850;12.928;2022-10-30T16:20:55;25.52;;;8.38;;
20729;SDS011;10526;50.850;12.928;2022-10-30T16:25:22;22.90;;;7.78;;
20729;SDS011;10526;50.850;12.928;2022-10-30T16:29:45;17.05;;;5.70;;
20729;SDS011;10526;50.850;12.928;2022-10-30T16:34:25;24.08;;;6.43;;
20729;SDS011;10526;50.850;12.928;2022-10-30T16:38:56;22.58;;;6.53;;
20729;SDS011;10526;50.850;12.928;2022-10-30T16:43:29;21.38;;;5.88;;
20729;SDS011;10526;50.850;12.928;2022-10-30T16:47:57;22.73;;;7.55;;
20729;SDS011;10526;50.850;12.928;2022-10-30T16:52:33;27.63;;;8.35;;
20729;SDS011;10526;50.850;12.928;2022-10-30T16:56:58;28.77;;;7.82;;
20729;SDS011;10526;50.850;12.928;2022-10-30T17:01:25;26.42;;;9.70;;
20729;SDS011;10526;50.850;12.928;2022-10-30T17:05:55;27.40;;;8.50;;
20729;SDS011;10526;50.850;12.928;2022-10-30T17:10:28;23.38;;;9.65;;
20729;SDS011;10526;50.850;12.928;2022-10-30T17:15:01;28.65;;;9.88;;
20729;SDS011;10526;50.850;12.928;2022-10-30T17:23:59;30.77;;;11.30;;
20729;SDS011;10526;50.850;12.928;2022-10-30T17:28:27;28.42;;;10.27;;
20729;SDS011;10526;50.850;12.928;2022-10-30T17:32:54;32.00;;;11.15;;
20729;SDS011;10526;50.850;12.928;2022-10-30T17:37:18;30.20;;;10.57;;
20729;SDS011;10526;50.850;12.928;2022-10-30T17:41:40;22.55;;;10.20;;
20729;SDS011;10526;50.850;12.928;2022-10-30T17:46:02;29.40;;;10.60;;
20729;SDS011;10526;50.850;12.928;2022-10-30T17:50:25;29.73;;;11.43;;
20729;SDS011;10526;50.850;12.928;2022-10-30T17:54:47;32.63;;;11.85;;
20729;SDS011;10526;50.850;12.928;2022-10-30T17:59:09;27.30;;;11.07;;
20729;SDS011;10526;50.850;12.928;2022-10-30T18:03:31;31.25;;;11.82;;
20729;SDS011;10526;50.850;12.928;2022-10-30T18:07:53;31.50;;;10.45;;
20729;SDS011;10526;50.850;12.928;2022-10-30T18:12:15;28.83;;;11.02;;
20729;SDS011;10526;50.850;12.928;2022-10-30T18:16:37;33.70;;;12.52;;
20729;SDS011;10526;50.850;12.928;2022-10-30T18:20:59;31.88;;;14.95;;
20729;SDS011;10526;50.850;12.928;2022-10-30T18:25:25;37.33;;;13.48;;
20729;SDS011;10526;50.850;12.928;2022-10-30T18:29:55;31.08;;;11.40;;
20729;SDS011;10526;50.850;12.928;2022-10-30T18:34:17;31.55;;;11.20;;
20729;SDS011;10526;50.850;12.928;2022-10-30T18:38:42;28.20;;;10.55;;
20729;SDS011;10526;50.850;12.928;2022-10-30T18:43:04;27.85;;;11.30;;
20729;SDS011;10526;50.850;12.928;2022-10-30T18:47:32;25.95;;;10.65;;
20729;SDS011;10526;50.850;12.928;2022-10-30T18:51:53;28.08;;;10.95;;
20729;SDS011;10526;50.850;12.928;2022-10-30T18:56:17;20.83;;;10.00;;
20729;SDS011;10526;50.850;12.928;2022-10-30T19:00:40;24.13;;;10.93;;
20729;SDS011;10526;50.850;12.928;2022-10-30T19:10:08;30.92;;;11.63;;
20729;SDS011;10526;50.850;12.928;2022-10-30T19:14:30;24.67;;;11.07;;
20729;SDS011;10526;50.850;12.928;2022-10-30T19:18:52;28.08;;;11.55;;
20729;SDS011;10526;50.850;12.928;2022-10-30T19:23:15;31.25;;;12.30;;
20729;SDS011;10526;50.850;12.928;2022-10-30T19:27:39;28.67;;;10.23;;
20729;SDS011;10526;50.850;12.928;2022-10-30T19:32:01;29.20;;;11.07;;
20729;SDS011;10526;50.850;12.928;2022-10-30T19:40:47;25.63;;;11.15;;
20729;SDS011;10526;50.850;12.928;2022-10-30T19:45:10;28.08;;;12.00;;
20729;SDS011;10526;50.850;12.928;2022-10-30T19:49:33;28.00;;;10.82;;
20729;SDS011;10526;50.850;12.928;2022-10-30T19:53:55;28.60;;;10.93;;
20729;SDS011;10526;50.850;12.928;2022-10-30T19:58:17;28.30;;;11.07;;
20729;SDS011;10526;50.850;12.928;2022-10-30T20:02:45;31.58;;;11.20;;
20729;SDS011;10526;50.850;12.928;2022-10-30T20:07:08;26.85;;;12.05;;
20729;SDS011;10526;50.850;12.928;2022-10-30T20:11:30;31.58;;;12.57;;
20729;SDS011;10526;50.850;12.928;2022-10-30T20:15:52;32.35;;;12.75;;
20729;SDS011;10526;50.850;12.928;2022-10-30T20:20:37;27.67;;;11.85;;
20729;SDS011;10526;50.850;12.928;2022-10-30T20:25:00;30.42;;;12.73;;
20729;SDS011;10526;50.850;12.928;2022-10-30T20:29:22;29.70;;;12.07;;
20729;SDS011;10526;50.850;12.928;2022-10-30T20:33:45;29.27;;;12.10;;
20729;SDS011;10526;50.850;12.928;2022-10-30T20:38:08;27.25;;;11.30;;
20729;SDS011;10526;50.850;12.928;2022-10-30T20:42:49;24.67;;;12.50;;
20729;SDS011;10526;50.850;12.928;2022-10-30T20:47:13;29.05;;;11.27;;
20729;SDS011;10526;50.850;12.928;2022-10-30T20:51:35;25.38;;;11.95;;
20729;SDS011;10526;50.850;12.928;2022-10-30T20:55:57;31.58;;;12.95;;
20729;SDS011;10526;50.850;12.928;2022-10-30T21:00:19;24.65;;;12.15;;
20729;SDS011;10526;50.850;12.928;2022-10-30T21:04:41;26.30;;;12.20;;
20729;SDS011;10526;50.850;12.928;2022-10-30T21:09:04;26.40;;;11.25;;
20729;SDS011;10526;50.850;12.928;2022-10-30T21:13:26;25.35;;;9.38;;
20729;SDS011;10526;50.850;12.928;2022-10-30T21:17:49;23.20;;;10.02;;
20729;SDS011;10526;50.850;12.928;2022-10-30T21:22:11;25.58;;;10.40;;
20729;SDS011;10526;50.850;12.928;2022-10-30T21:26:33;29.33;;;10.23;;
20729;SDS011;10526;50.850;12.928;2022-10-30T21:31:03;20.80;;;9.88;;
20729;SDS011;10526;50.850;12.928;2022-10-30T21:35:27;19.15;;;9.45;;
20729;SDS011;10526;50.850;12.928;2022-10-30T21:39:50;25.55;;;9.73;;
20729;SDS011;10526;50.850;12.928;2022-10-30T21:44:12;23.48;;;9.95;;
20729;SDS011;10526;50.850;12.928;2022-10-30T21:48:35;29.63;;;12.38;;
20729;SDS011;10526;50.850;12.928;2022-10-30T21:52:58;26.05;;;10.65;;
20729;SDS011;10526;50.850;12.928;2022-10-30T21:57:20;27.27;;;12.65;;
20729;SDS011;10526;50.850;12.928;2022-10-30T22:01:42;27.27;;;11.27;;
20729;SDS011;10526;50.850;12.928;2022-10-30T22:06:08;35.33;;;13.25;;
20729;SDS011;10526;50.850;12.928;2022-10-30T22:10:33;31.15;;;13.35;;
20729;SDS011;10526;50.850;12.928;2022-10-30T22:14:55;30.15;;;14.70;;
20729;SDS011;10526;50.850;12.928;2022-10-30T22:19:16;27.70;;;12.93;;
20729;SDS011;10526;50.850;12.928;2022-10-30T22:23:39;30.48;;;13.60;;
20729;SDS011;10526;50.850;12.928;2022-10-30T22:28:01;33.95;;;13.65;;
20729;SDS011;10526;50.850;12.928;2022-10-30T22:32:24;28.30;;;12.90;;
20729;SDS011;10526;50.850;12.928;2022-10-30T22:36:46;28.40;;;14.07;;
20729;SDS011;10526;50.850;12.928;2022-10-30T22:41:09;28.15;;;14.45;;
20729;SDS011;10526;50.850;12.928;2022-10-30T22:45:36;30.70;;;13.18;;
20729;SDS011;10526;50.850;12.928;2022-10-30T22:49:58;29.90;;;13.93;;
20729;SDS011;10526;50.850;12.928;2022-10-30T22:54:20;28.55;;;13.13;;
20729;SDS011;10526;50.850;12.928;2022-10-30T22:58:42;29.83;;;14.20;;
20729;SDS011;10526;50.850;12.928;2022-10-30T23:03:06;33.13;;;14.32;;
20729;SDS011;10526;50.850;12.928;2022-10-30T23:07:28;28.52;;;12.18;;
20729;SDS011;10526;50.850;12.928;2022-10-30T23:11:50;26.85;;;12.57;;
20729;SDS011;10526;50.850;12.928;2022-10-30T23:16:16;27.20;;;12.05;;
20729;SDS011;10526;50.850;12.928;2022-10-30T23:20:42;28.95;;;12.63;;
20729;SDS011;10526;50.850;12.928;2022-10-30T23:25:06;27.55;;;12.73;;
20729;SDS011;10526;50.850;12.928;2022-10-30T23:29:28;25.40;;;12.20;;
20729;SDS011;10526;50.850;12.928;2022-10-30T23:33:50;24.58;;;11.98;;
20729;SDS011;10526;50.850;12.928;2022-10-30T23:38:17;27.85;;;11.75;;
20729;SDS011;10526;50.850;12.928;2022-10-30T23:42:39;25.27;;;12.50;;
20729;SDS011;10526;50.850;12.928;2022-10-30T23:47:01;24.48;;;12.77;;
20729;SDS011;10526;50.850;12.928;2022-10-30T23:51:23;27.45;;;11.65;;
20729;SDS011;10526;50.850;12.928;2022-10-30T23:55:49;26.08;;;12.40;;
